createdAt,value
2023-11-12T00:02:09.920Z,5.18
2023-11-12T00:04:37.643Z,5.03
2023-11-12T00:07:05.401Z,5.15
2023-11-12T00:09:33.059Z,5.11
2023-11-12T00:12:00.581Z,5.05
2023-11-12T00:14:28.215Z,5.03
2023-11-12T00:16:56.002Z,5.01
2023-11-12T00:19:23.449Z,4.99
2023-11-12T00:21:50.911Z,4.91
2023-11-12T00:24:19.016Z,4.92
2023-11-12T00:26:46.439Z,4.98
2023-11-12T00:29:13.925Z,4.97
2023-11-12T00:31:41.628Z,4.95
2023-11-12T00:34:09.285Z,4.91
2023-11-12T00:36:37.881Z,4.90
2023-11-12T00:39:05.574Z,4.91
2023-11-12T00:41:33.045Z,4.92
2023-11-12T00:44:00.652Z,4.94
2023-11-12T00:46:28.403Z,4.96
2023-11-12T00:48:56.798Z,4.92
2023-11-12T00:51:24.159Z,4.88
2023-11-12T00:53:51.852Z,4.88
2023-11-12T00:56:19.467Z,4.87
2023-11-12T00:58:47.163Z,4.87
2023-11-12T01:01:15.733Z,4.88
2023-11-12T01:03:43.420Z,4.69
2023-11-12T01:06:10.936Z,4.86
2023-11-12T01:08:39.127Z,4.77
2023-11-12T01:11:06.726Z,4.83
2023-11-12T01:13:34.549Z,4.77
2023-11-12T01:16:02.492Z,4.69
2023-11-12T01:18:33.028Z,4.79
2023-11-12T01:21:00.755Z,4.79
2023-11-12T01:23:28.243Z,4.80
2023-11-12T01:25:56.186Z,4.80
2023-11-12T01:28:23.547Z,4.80
2023-11-12T01:30:51.288Z,4.75
2023-11-12T01:33:21.173Z,4.67
2023-11-12T01:35:48.574Z,4.85
2023-11-12T01:38:15.929Z,4.85
2023-11-12T01:40:43.439Z,4.86
2023-11-12T01:43:11.486Z,4.85
2023-11-12T01:45:38.892Z,4.84
2023-11-12T01:48:07.420Z,4.85
2023-11-12T01:50:34.880Z,4.85
2023-11-12T01:53:03.273Z,4.85
2023-11-12T01:55:32.247Z,4.85
2023-11-12T01:57:59.885Z,4.84
2023-11-12T02:00:27.635Z,4.66
2023-11-12T02:02:55.971Z,4.89
2023-11-12T02:05:24.796Z,4.89
2023-11-12T02:07:53.001Z,4.87
2023-11-12T02:10:20.519Z,4.89
2023-11-12T02:12:48.916Z,4.93
2023-11-12T02:15:17.863Z,4.96
2023-11-12T02:17:48.700Z,4.88
2023-11-12T02:20:16.573Z,4.92
2023-11-12T02:22:45.233Z,4.96
2023-11-12T02:25:14.999Z,4.95
2023-11-12T02:27:42.980Z,5.00
2023-11-12T02:30:10.909Z,5.01
2023-11-12T02:32:39.303Z,5.01
2023-11-12T02:35:09.033Z,5.02
2023-11-12T02:37:38.025Z,5.10
2023-11-12T02:40:05.917Z,5.11
2023-11-12T02:42:34.763Z,5.10
2023-11-12T02:45:02.227Z,5.18
2023-11-12T02:47:29.600Z,5.21
2023-11-12T02:50:24.025Z,5.24
2023-11-12T02:52:51.656Z,5.24
2023-11-12T02:55:19.249Z,5.28
2023-11-12T02:57:48.043Z,5.28
2023-11-12T03:00:16.655Z,5.32
2023-11-12T03:02:47.964Z,5.34
2023-11-12T03:05:16.222Z,5.32
2023-11-12T03:07:43.994Z,5.33
2023-11-12T03:10:11.603Z,5.38
2023-11-12T03:12:39.914Z,5.37
2023-11-12T03:15:09.318Z,5.39
2023-11-12T03:17:38.074Z,5.39
2023-11-12T03:20:09.424Z,5.40
2023-11-12T03:22:37.964Z,5.39
2023-11-12T03:25:06.620Z,5.37
2023-11-12T03:27:34.744Z,5.38
2023-11-12T03:30:02.795Z,5.36
2023-11-12T03:32:30.288Z,5.37
2023-11-12T03:34:59.444Z,5.40
2023-11-12T03:37:26.831Z,5.40
2023-11-12T03:39:54.251Z,5.38
2023-11-12T03:42:21.863Z,5.41
2023-11-12T03:44:52.620Z,5.43
2023-11-12T03:47:20.126Z,5.46
2023-11-12T03:49:47.518Z,5.46
2023-11-12T03:52:15.959Z,5.49
2023-11-12T03:54:43.594Z,5.48
2023-11-12T03:57:11.300Z,5.55
2023-11-12T03:59:38.759Z,5.55
2023-11-12T04:02:07.191Z,5.56
2023-11-12T04:04:34.862Z,5.55
2023-11-12T04:07:02.354Z,5.51
2023-11-12T04:09:29.716Z,5.55
2023-11-12T04:11:57.161Z,5.55
2023-11-12T04:14:24.672Z,5.59
2023-11-12T04:16:52.337Z,5.59
2023-11-12T04:19:19.774Z,5.61
2023-11-12T04:21:48.705Z,5.60
2023-11-12T04:24:16.339Z,5.63
2023-11-12T04:26:44.363Z,5.65
2023-11-12T04:29:14.657Z,5.65
2023-11-12T04:31:41.934Z,5.65
2023-11-12T04:34:10.461Z,5.65
2023-11-12T04:36:37.913Z,5.65
2023-11-12T04:39:05.890Z,5.68
2023-11-12T04:41:33.413Z,5.65
2023-11-12T04:44:00.970Z,5.70
2023-11-12T04:46:29.511Z,5.69
2023-11-12T04:48:57.024Z,5.69
2023-11-12T04:51:24.610Z,5.65
2023-11-12T04:53:52.224Z,5.71
2023-11-12T04:56:19.850Z,5.75
2023-11-12T04:58:47.269Z,5.68
2023-11-12T05:01:15.109Z,5.75
2023-11-12T05:03:42.590Z,5.74
2023-11-12T05:06:10.664Z,5.75
2023-11-12T05:08:39.734Z,5.76
2023-11-12T05:11:07.284Z,5.78
2023-11-12T05:13:34.785Z,5.78
2023-11-12T05:16:02.325Z,5.82
2023-11-12T05:18:30.567Z,5.83
2023-11-12T05:20:58.186Z,5.77
2023-11-12T05:23:25.681Z,5.84
2023-11-12T05:25:54.254Z,5.85
2023-11-12T05:28:21.761Z,5.86
2023-11-12T05:30:49.719Z,5.87
2023-11-12T05:33:17.233Z,5.87
2023-11-12T05:35:44.724Z,5.92
2023-11-12T05:38:12.056Z,5.90
2023-11-12T05:40:41.225Z,5.91
2023-11-12T05:43:09.053Z,5.94
2023-11-12T05:45:36.693Z,5.95
2023-11-12T05:48:04.220Z,5.95
2023-11-12T05:50:31.803Z,5.95
2023-11-12T05:52:59.092Z,5.94
2023-11-12T05:55:26.970Z,5.97
2023-11-12T05:57:54.354Z,5.97
2023-11-12T06:00:21.939Z,5.98
2023-11-12T06:02:49.663Z,5.99
2023-11-12T06:05:17.420Z,5.93
2023-11-12T06:07:44.938Z,5.98
2023-11-12T06:10:12.858Z,5.98
2023-11-12T06:12:40.364Z,5.91
2023-11-12T06:15:08.142Z,5.96
2023-11-12T06:17:35.752Z,5.93
2023-11-12T06:20:04.939Z,5.95
2023-11-12T06:22:32.572Z,5.95
2023-11-12T06:25:00.082Z,5.93
2023-11-12T06:27:28.548Z,5.91
2023-11-12T06:29:55.991Z,5.87
2023-11-12T06:32:23.443Z,5.87
2023-11-12T06:34:50.855Z,5.84
2023-11-12T06:37:18.339Z,5.88
2023-11-12T06:39:47.606Z,5.88
2023-11-12T06:42:15.206Z,5.88
2023-11-12T06:44:42.737Z,5.89
2023-11-12T06:47:10.791Z,5.86
2023-11-12T06:49:38.213Z,5.88
2023-11-12T06:52:06.264Z,5.88
2023-11-12T06:54:33.770Z,5.89
2023-11-12T06:57:02.113Z,5.87
2023-11-12T06:59:29.648Z,5.83
2023-11-12T07:01:56.982Z,5.90
2023-11-12T07:04:24.585Z,5.91
2023-11-12T07:07:01.945Z,5.92
2023-11-12T07:09:37.368Z,5.93
2023-11-12T07:12:06.008Z,5.93
2023-11-12T07:14:33.547Z,5.92
2023-11-12T07:17:01.100Z,5.90
2023-11-12T07:19:28.689Z,5.94
2023-11-12T07:21:56.223Z,5.98
2023-11-12T07:24:23.877Z,5.97
2023-11-12T07:26:51.569Z,5.97
2023-11-12T07:29:19.318Z,5.99
2023-11-12T07:31:46.871Z,6.00
2023-11-12T07:34:14.232Z,6.01
2023-11-12T07:36:41.716Z,6.05
2023-11-12T07:39:09.524Z,6.06
2023-11-12T07:41:38.538Z,6.06
2023-11-12T07:44:07.356Z,6.06
2023-11-12T07:46:34.826Z,6.06
2023-11-12T07:49:02.410Z,6.11
2023-11-12T07:51:30.051Z,6.06
2023-11-12T07:53:57.575Z,6.09
2023-11-12T07:56:28.229Z,6.09
2023-11-12T07:58:59.042Z,6.08
2023-11-12T08:01:27.457Z,6.07
2023-11-12T08:03:55.023Z,6.10
2023-11-12T08:06:22.702Z,6.10
2023-11-12T08:08:50.192Z,6.12
2023-11-12T08:11:17.633Z,6.13
2023-11-12T08:13:45.245Z,6.16
2023-11-12T08:16:12.765Z,6.18
2023-11-12T08:18:44.771Z,6.20
2023-11-12T08:21:13.810Z,6.15
2023-11-12T08:23:41.215Z,6.23
2023-11-12T08:26:08.704Z,6.25
2023-11-12T08:28:36.219Z,6.26
2023-11-12T08:31:03.764Z,6.22
2023-11-12T08:33:31.174Z,6.24
2023-11-12T08:35:59.353Z,6.27
2023-11-12T08:38:26.830Z,6.29
2023-11-12T08:40:56.087Z,6.25
2023-11-12T08:43:25.585Z,6.30
2023-11-12T08:45:53.153Z,6.31
2023-11-12T08:48:21.954Z,6.34
2023-11-12T08:50:49.649Z,6.34
2023-11-12T08:53:16.970Z,6.36
2023-11-12T08:55:44.971Z,6.39
2023-11-12T08:58:12.544Z,6.33
2023-11-12T09:00:40.650Z,6.41
2023-11-12T09:03:08.158Z,6.42
2023-11-12T09:05:37.029Z,6.46
2023-11-12T09:08:04.792Z,6.48
2023-11-12T09:10:33.234Z,6.48
2023-11-12T09:13:01.544Z,6.51
2023-11-12T09:15:29.015Z,6.50
2023-11-12T09:17:57.008Z,6.50
2023-11-12T09:20:24.546Z,6.51
2023-11-12T09:22:52.320Z,6.52
2023-11-12T09:25:19.825Z,6.52
2023-11-12T09:27:47.262Z,6.55
2023-11-12T09:30:15.411Z,6.55
2023-11-12T09:32:43.273Z,6.60
2023-11-12T09:35:11.460Z,6.58
2023-11-12T09:37:39.060Z,6.58
2023-11-12T09:40:12.287Z,6.60
2023-11-12T09:42:42.928Z,6.61
2023-11-12T09:45:11.333Z,6.59
2023-11-12T09:48:04.582Z,6.62
2023-11-12T09:50:32.864Z,6.62
2023-11-12T09:53:04.649Z,6.61
2023-11-12T09:55:32.479Z,6.64
2023-11-12T09:58:03.053Z,6.65
2023-11-12T10:00:35.713Z,6.65
2023-11-12T10:03:07.972Z,6.63
2023-11-12T10:05:36.238Z,6.69
2023-11-12T10:08:06.158Z,6.68
2023-11-12T10:10:35.164Z,6.56
2023-11-12T10:13:06.100Z,6.68
2023-11-12T10:15:37.771Z,6.78
2023-11-12T10:18:05.849Z,6.83
2023-11-12T10:20:41.431Z,6.87
2023-11-12T10:25:53.109Z,7.01
2023-11-12T10:28:20.751Z,7.09
2023-11-12T10:30:55.360Z,7.21
2023-11-12T10:33:30.547Z,7.30
2023-11-12T10:35:57.982Z,7.39
2023-11-12T10:38:25.665Z,7.46
2023-11-12T10:41:02.289Z,7.54
2023-11-12T10:43:33.986Z,7.64
2023-11-12T10:46:05.901Z,7.65
2023-11-12T10:48:38.879Z,7.65
2023-11-12T10:51:07.904Z,7.50
2023-11-12T10:53:37.604Z,7.66
2023-11-12T10:56:07.475Z,7.61
2023-11-12T10:58:36.743Z,7.76
2023-11-12T11:01:06.405Z,7.84
2023-11-12T11:03:35.685Z,7.89
2023-11-12T11:06:04.570Z,7.96
2023-11-12T11:08:33.008Z,7.99
2023-11-12T11:11:01.596Z,8.12
2023-11-12T11:13:30.496Z,8.18
2023-11-12T11:15:59.682Z,8.23
2023-11-12T11:18:30.646Z,8.21
2023-11-12T11:21:19.443Z,8.19
2023-11-12T11:23:54.891Z,8.20
2023-11-12T11:26:42.122Z,8.13
2023-11-12T11:29:11.665Z,8.07
2023-11-12T11:31:40.158Z,8.05
2023-11-12T11:34:14.701Z,8.03
2023-11-12T11:36:58.392Z,8.05
2023-11-12T11:39:30.131Z,8.06
2023-11-12T11:41:58.140Z,8.09
2023-11-12T11:44:42.399Z,8.07
2023-11-12T11:47:21.887Z,8.04
2023-11-12T11:50:12.590Z,8.06
2023-11-12T11:52:43.850Z,8.07
2023-11-12T11:55:27.606Z,7.98
2023-11-12T11:57:58.220Z,7.96
2023-11-12T12:00:25.619Z,8.00
2023-11-12T12:02:53.001Z,8.06
2023-11-12T12:05:34.812Z,8.08
2023-11-12T12:08:05.463Z,8.12
2023-11-12T12:10:35.731Z,8.02
2023-11-12T12:13:04.482Z,8.12
2023-11-12T12:15:32.900Z,8.16
2023-11-12T12:18:01.247Z,8.22
2023-11-12T12:20:41.174Z,8.24
2023-11-12T12:23:08.756Z,8.24
2023-11-12T12:25:51.319Z,8.30
2023-11-12T12:28:21.841Z,8.30
2023-11-12T12:30:53.512Z,8.30
2023-11-12T12:33:21.152Z,8.26
2023-11-12T12:35:50.990Z,8.22
2023-11-12T12:38:18.448Z,8.11
2023-11-12T12:40:52.256Z,8.10
2023-11-12T12:43:21.259Z,8.09
2023-11-12T12:45:58.522Z,8.07
2023-11-12T12:48:26.066Z,7.89
2023-11-12T12:51:00.646Z,8.02
2023-11-12T12:53:28.956Z,8.00
2023-11-12T12:55:57.337Z,7.97
2023-11-12T12:58:41.598Z,7.96
2023-11-12T13:01:12.641Z,7.96
2023-11-12T13:03:42.650Z,7.96
2023-11-12T13:06:11.957Z,7.94
2023-11-12T13:08:42.152Z,7.91
2023-11-12T13:11:10.858Z,7.77
2023-11-12T13:13:39.494Z,7.64
2023-11-12T13:16:11.761Z,7.52
2023-11-12T13:18:42.409Z,7.50
2023-11-12T13:21:11.612Z,7.45
2023-11-12T13:23:40.055Z,7.41
2023-11-12T13:26:07.688Z,7.37
2023-11-12T13:28:37.503Z,7.33
2023-11-12T13:31:06.298Z,7.29
2023-11-12T13:33:34.956Z,7.25
2023-11-12T13:36:04.182Z,7.20
2023-11-12T13:38:37.291Z,7.22
2023-11-12T13:41:04.776Z,6.97
2023-11-12T13:43:33.799Z,7.15
2023-11-12T13:46:01.174Z,7.12
2023-11-12T13:48:29.652Z,7.08
2023-11-12T13:50:57.006Z,7.04
2023-11-12T13:53:25.961Z,6.98
2023-11-12T13:55:59.636Z,6.95
2023-11-12T13:58:28.880Z,6.94
2023-11-12T14:00:56.250Z,6.94
2023-11-12T14:03:23.580Z,6.87
2023-11-12T14:05:50.862Z,6.88
2023-11-12T14:08:18.715Z,6.87
2023-11-12T14:10:49.491Z,6.83
2023-11-12T14:13:16.681Z,6.84
2023-11-12T14:15:45.365Z,6.84
2023-11-12T14:18:12.829Z,6.78
2023-11-12T14:20:40.103Z,6.80
2023-11-12T14:23:07.935Z,6.79
2023-11-12T14:25:35.225Z,6.78
2023-11-12T14:28:04.522Z,6.72
2023-11-12T14:30:34.476Z,6.71
2023-11-12T14:33:01.781Z,6.69
2023-11-12T14:35:29.377Z,6.66
2023-11-12T14:37:58.930Z,6.64
2023-11-12T14:40:28.152Z,6.65
2023-11-12T14:42:56.509Z,6.63
2023-11-12T14:45:30.427Z,6.59
2023-11-12T14:48:01.106Z,6.58
2023-11-12T14:50:28.679Z,6.54
2023-11-12T14:52:59.129Z,6.43
2023-11-12T14:55:27.009Z,6.51
2023-11-12T14:57:58.274Z,6.48
2023-11-12T15:00:36.661Z,6.42
2023-11-12T15:03:07.615Z,6.35
2023-11-12T15:05:35.363Z,6.25
2023-11-12T15:08:02.682Z,6.13
2023-11-12T15:10:30.588Z,6.01
2023-11-12T15:12:58.826Z,5.93
2023-11-12T15:15:26.504Z,5.85
2023-11-12T15:17:55.861Z,5.74
2023-11-12T15:20:23.326Z,5.69
2023-11-12T15:22:52.274Z,5.62
2023-11-12T15:25:20.220Z,5.63
2023-11-12T15:27:50.242Z,5.61
2023-11-12T15:30:19.087Z,5.55
2023-11-12T15:32:47.201Z,5.58
2023-11-12T15:35:15.813Z,5.54
2023-11-12T15:37:44.097Z,5.49
2023-11-12T15:40:24.656Z,5.49
2023-11-12T15:42:53.495Z,5.51
2023-11-12T15:45:25.045Z,5.46
2023-11-12T15:47:53.466Z,5.47
2023-11-12T15:50:23.223Z,5.45
2023-11-12T15:52:51.833Z,5.45
2023-11-12T15:55:19.315Z,5.42
2023-11-12T15:57:47.553Z,5.40
2023-11-12T16:00:15.973Z,5.39
2023-11-12T16:02:47.928Z,5.36
2023-11-12T16:05:15.680Z,5.33
2023-11-12T16:07:44.804Z,5.37
2023-11-12T16:10:14.233Z,5.36
2023-11-12T16:12:41.951Z,5.32
2023-11-12T16:15:14.269Z,5.36
2023-11-12T16:17:43.638Z,5.39
2023-11-12T16:20:13.973Z,5.39
2023-11-12T16:22:41.844Z,5.38
2023-11-12T16:25:10.158Z,5.42
2023-11-12T16:27:38.014Z,5.39
2023-11-12T16:30:06.472Z,5.43
2023-11-12T16:32:33.803Z,5.49
2023-11-12T16:35:01.225Z,5.49
2023-11-12T16:37:28.521Z,5.49
2023-11-12T16:39:56.346Z,5.53
2023-11-12T16:42:23.967Z,5.48
2023-11-12T16:44:51.239Z,5.49
2023-11-12T16:47:24.794Z,5.51
2023-11-12T16:49:54.828Z,5.51
2023-11-12T16:52:23.173Z,5.50
2023-11-12T16:54:50.746Z,5.46
2023-11-12T16:57:17.990Z,5.43
2023-11-12T16:59:45.238Z,5.46
2023-11-12T17:02:15.316Z,5.45
2023-11-12T17:04:43.336Z,5.44
2023-11-12T17:07:12.599Z,5.45
2023-11-12T17:09:46.339Z,5.43
2023-11-12T17:12:15.273Z,5.40
2023-11-12T17:14:43.728Z,5.32
2023-11-12T17:17:11.102Z,5.27
2023-11-12T17:19:38.283Z,5.19
2023-11-12T17:22:05.684Z,5.15
2023-11-12T17:24:33.554Z,5.10
2023-11-12T17:27:00.956Z,5.02
2023-11-12T17:29:28.457Z,4.97
2023-11-12T17:31:55.730Z,4.99
2023-11-12T17:34:23.028Z,4.95
2023-11-12T17:36:50.401Z,4.98
2023-11-12T17:39:17.967Z,4.94
2023-11-12T17:41:48.675Z,4.95
2023-11-12T17:44:16.718Z,5.03
2023-11-12T17:46:46.349Z,5.03
2023-11-12T17:49:14.337Z,5.00
2023-11-12T17:51:42.896Z,5.08
2023-11-12T17:54:10.304Z,5.18
2023-11-12T17:56:38.472Z,5.25
2023-11-12T17:59:06.502Z,5.29
2023-11-12T18:01:34.672Z,5.31
2023-11-12T18:04:02.185Z,5.30
2023-11-12T18:06:29.993Z,5.36
2023-11-12T18:08:57.368Z,5.39
2023-11-12T18:11:24.700Z,5.39
2023-11-12T18:13:51.989Z,5.43
2023-11-12T18:16:22.572Z,5.43
2023-11-12T18:18:50.342Z,5.53
2023-11-12T18:21:17.849Z,5.57
2023-11-12T18:23:45.190Z,5.60
2023-11-12T18:26:14.757Z,5.65
2023-11-12T18:28:41.970Z,5.67
2023-11-12T18:31:09.281Z,5.70
2023-11-12T18:33:36.730Z,5.72
2023-11-12T18:36:04.130Z,5.74
2023-11-12T18:38:33.263Z,5.72
2023-11-12T18:41:00.577Z,5.74
2023-11-12T18:43:28.270Z,5.73
2023-11-12T18:45:57.948Z,5.75
2023-11-12T18:48:25.480Z,5.76
2023-11-12T18:50:52.979Z,5.81
2023-11-12T18:53:22.763Z,5.84
2023-11-12T18:55:50.053Z,5.85
2023-11-12T18:58:18.214Z,5.86
2023-11-12T19:00:45.923Z,5.85
2023-11-12T19:03:13.457Z,5.87
2023-11-12T19:05:41.009Z,5.88
2023-11-12T19:08:10.765Z,5.89
2023-11-12T19:10:38.749Z,5.89
2023-11-12T19:13:06.087Z,5.88
2023-11-12T19:15:33.499Z,5.90
2023-11-12T19:18:00.950Z,5.92
2023-11-12T19:20:28.222Z,5.91
2023-11-12T19:22:55.562Z,5.95
2023-11-12T19:25:23.026Z,5.94
2023-11-12T19:27:50.961Z,5.92
2023-11-12T19:30:18.195Z,5.94
2023-11-12T19:32:46.261Z,5.90
2023-11-12T19:35:14.308Z,5.90
2023-11-12T19:37:41.682Z,5.89
2023-11-12T19:40:09.929Z,5.89
2023-11-12T19:42:37.730Z,5.85
2023-11-12T19:45:08.397Z,5.83
2023-11-12T19:47:35.723Z,5.79
2023-11-12T19:50:03.059Z,5.74
2023-11-12T19:52:30.462Z,5.73
2023-11-12T19:54:57.707Z,5.71
2023-11-12T19:57:27.399Z,5.67
2023-11-12T19:59:56.931Z,5.64
2023-11-12T20:02:24.343Z,5.63
2023-11-12T20:04:52.980Z,5.57
2023-11-12T20:07:20.165Z,5.52
2023-11-12T20:09:48.164Z,5.56
2023-11-12T20:12:15.785Z,5.54
2023-11-12T20:14:43.896Z,5.46
2023-11-12T20:17:13.650Z,5.50
2023-11-12T20:19:43.116Z,5.45
2023-11-12T20:22:11.757Z,5.42
2023-11-12T20:24:39.381Z,5.41
2023-11-12T20:27:10.626Z,5.34
2023-11-12T20:29:38.196Z,5.39
2023-11-12T20:32:05.627Z,5.37
2023-11-12T20:34:32.897Z,5.36
2023-11-12T20:37:00.539Z,5.34
2023-11-12T20:39:27.886Z,5.31
2023-11-12T20:41:57.771Z,5.29
2023-11-12T20:44:25.174Z,5.25
2023-11-12T20:46:52.539Z,5.24
2023-11-12T20:49:19.984Z,5.23
2023-11-12T20:51:48.443Z,5.23
2023-11-12T20:54:19.392Z,5.24
2023-11-12T20:56:46.728Z,5.23
2023-11-12T20:59:14.422Z,5.24
2023-11-12T21:01:41.938Z,5.27
2023-11-12T21:04:12.849Z,5.25
2023-11-12T21:06:42.160Z,5.28
2023-11-12T21:09:10.151Z,5.28
2023-11-12T21:11:41.215Z,5.29
2023-11-12T21:14:13.169Z,5.26
2023-11-12T21:16:41.675Z,5.19
2023-11-12T21:19:11.183Z,5.27
2023-11-12T21:21:40.089Z,5.26
2023-11-12T21:24:09.999Z,5.28
2023-11-12T21:26:38.706Z,5.28
2023-11-12T21:29:05.998Z,5.26
2023-11-12T21:31:33.280Z,5.24
2023-11-12T21:34:01.298Z,5.25
2023-11-12T21:36:28.577Z,5.17
2023-11-12T21:38:57.122Z,5.26
2023-11-12T21:41:24.567Z,5.08
2023-11-12T21:43:54.575Z,5.25
2023-11-12T21:46:22.027Z,5.23
2023-11-12T21:48:51.668Z,5.22
2023-11-12T21:51:19.623Z,5.22
2023-11-12T21:53:49.537Z,5.13
2023-11-12T21:56:16.887Z,5.24
2023-11-12T21:58:44.071Z,5.25
2023-11-12T22:01:11.873Z,5.23
2023-11-12T22:03:39.677Z,5.22
2023-11-12T22:06:11.983Z,5.27
2023-11-12T22:08:39.382Z,5.29
2023-11-12T22:11:06.709Z,5.28
2023-11-12T22:13:34.055Z,5.30
2023-11-12T22:16:01.631Z,5.29
2023-11-12T22:18:29.724Z,5.33
2023-11-12T22:20:57.448Z,5.36
2023-11-12T22:23:24.719Z,5.33
2023-11-12T22:25:52.088Z,5.38
2023-11-12T22:28:19.448Z,5.38
2023-11-12T22:30:47.024Z,5.39
2023-11-12T22:33:14.419Z,5.40
2023-11-12T22:35:41.727Z,5.41
2023-11-12T22:38:08.962Z,5.39
2023-11-12T22:40:37.575Z,5.40
2023-11-12T22:43:04.824Z,5.44
2023-11-12T22:45:32.814Z,5.43
2023-11-12T22:48:00.173Z,5.44
2023-11-12T22:50:28.832Z,5.47
2023-11-12T22:52:56.129Z,5.50
2023-11-12T22:55:23.411Z,5.51
2023-11-12T22:57:52.247Z,5.52
2023-11-12T23:00:42.793Z,5.44
2023-11-12T23:03:15.120Z,5.47
2023-11-12T23:05:47.213Z,5.47
2023-11-12T23:08:15.405Z,5.47
2023-11-12T23:10:44.298Z,5.54
2023-11-12T23:13:13.715Z,5.33
2023-11-12T23:15:41.528Z,5.51
2023-11-12T23:18:08.880Z,5.57
2023-11-12T23:20:36.306Z,5.59
2023-11-12T23:23:04.215Z,5.54
2023-11-12T23:25:31.747Z,5.62
2023-11-12T23:28:00.245Z,5.64
2023-11-12T23:30:30.945Z,5.66
2023-11-12T23:32:58.200Z,5.63
2023-11-12T23:35:27.697Z,5.67
2023-11-12T23:37:55.371Z,5.67
2023-11-12T23:40:22.648Z,5.69
2023-11-12T23:42:49.895Z,5.73
2023-11-12T23:45:18.083Z,5.73
2023-11-12T23:47:45.350Z,5.70
2023-11-12T23:50:12.865Z,5.73
2023-11-12T23:52:40.250Z,5.54
2023-11-12T23:55:07.889Z,5.72
2023-11-12T23:57:36.249Z,5.67
